createdAt,value
2023-09-11T00:00:13.865Z,0.00
2023-09-11T00:01:13.807Z,0.00
2023-09-11T00:02:14.073Z,0.00
2023-09-11T00:03:13.020Z,0.00
2023-09-11T00:04:13.216Z,0.00
2023-09-11T00:05:13.266Z,0.00
2023-09-11T00:06:13.525Z,0.00
2023-09-11T00:07:15.995Z,0.00
2023-09-11T00:08:13.188Z,0.00
2023-09-11T00:09:13.188Z,0.00
2023-09-11T00:10:13.186Z,0.00
2023-09-11T00:11:13.336Z,0.00
2023-09-11T00:12:13.196Z,0.00
2023-09-11T00:13:13.228Z,0.00
2023-09-11T00:14:13.504Z,0.00
2023-09-11T00:15:13.527Z,0.00
2023-09-11T00:16:13.439Z,0.00
2023-09-11T00:17:13.431Z,0.00
2023-09-11T00:18:13.588Z,0.00
2023-09-11T00:19:13.899Z,0.00
2023-09-11T00:20:12.879Z,0.00
2023-09-11T00:21:13.823Z,0.00
2023-09-11T00:22:13.957Z,0.00
2023-09-11T00:23:13.170Z,0.00
2023-09-11T00:24:13.236Z,0.00
2023-09-11T00:25:13.155Z,0.00
2023-09-11T00:26:12.989Z,0.00
2023-09-11T00:27:12.966Z,0.00
2023-09-11T00:28:13.038Z,0.00
2023-09-11T00:29:13.138Z,0.00
2023-09-11T00:30:13.012Z,0.00
2023-09-11T00:31:13.138Z,0.00
2023-09-11T00:32:13.144Z,0.00
2023-09-11T00:33:13.470Z,0.00
2023-09-11T00:34:13.625Z,0.00
2023-09-11T00:35:13.476Z,0.00
2023-09-11T00:36:13.588Z,0.00
2023-09-11T00:37:13.479Z,0.00
2023-09-11T00:38:13.530Z,0.00
2023-09-11T00:39:13.829Z,0.00
2023-09-11T00:40:13.742Z,0.00
2023-09-11T00:41:13.666Z,0.00
2023-09-11T00:42:13.477Z,0.00
2023-09-11T00:43:13.584Z,0.00
2023-09-11T00:44:13.404Z,0.00
2023-09-11T00:45:13.323Z,0.00
2023-09-11T00:46:13.244Z,0.00
2023-09-11T00:47:13.103Z,0.00
2023-09-11T00:48:13.214Z,0.00
2023-09-11T00:49:13.249Z,0.00
2023-09-11T00:50:13.271Z,0.00
2023-09-11T00:51:13.184Z,0.00
2023-09-11T00:52:13.381Z,0.00
2023-09-11T00:53:13.240Z,0.00
2023-09-11T00:54:13.156Z,0.00
2023-09-11T00:55:13.102Z,0.00
2023-09-11T00:56:13.021Z,0.00
2023-09-11T00:57:13.175Z,0.00
2023-09-11T00:58:12.963Z,0.00
2023-09-11T00:59:13.131Z,0.00
2023-09-11T01:00:13.285Z,0.00
2023-09-11T01:01:13.224Z,0.00
2023-09-11T01:02:13.093Z,0.00
2023-09-11T01:03:12.855Z,0.00
2023-09-11T01:04:12.746Z,0.00
2023-09-11T01:05:14.055Z,0.00
2023-09-11T01:06:13.064Z,0.00
2023-09-11T01:07:13.058Z,0.00
2023-09-11T01:08:12.977Z,0.00
2023-09-11T01:09:12.751Z,0.00
2023-09-11T01:10:13.762Z,0.00
2023-09-11T01:11:13.746Z,0.00
2023-09-11T01:12:13.706Z,0.00
2023-09-11T01:13:13.672Z,0.00
2023-09-11T01:14:13.576Z,0.00
2023-09-11T01:15:13.701Z,0.00
2023-09-11T01:16:13.684Z,0.00
2023-09-11T01:17:13.673Z,0.00
2023-09-11T01:18:13.541Z,0.00
2023-09-11T01:19:13.635Z,0.00
2023-09-11T01:20:13.433Z,0.00
2023-09-11T01:21:13.595Z,0.00
2023-09-11T01:22:13.604Z,0.00
2023-09-11T01:23:13.535Z,0.00
2023-09-11T01:24:13.520Z,0.00
2023-09-11T01:25:13.452Z,0.00
2023-09-11T01:26:13.300Z,0.00
2023-09-11T01:27:13.310Z,0.00
2023-09-11T01:28:13.207Z,0.00
2023-09-11T01:29:12.984Z,0.00
2023-09-11T01:30:12.940Z,0.00
2023-09-11T01:31:13.174Z,0.00
2023-09-11T01:32:13.339Z,0.00
2023-09-11T01:33:13.663Z,0.00
2023-09-11T01:34:13.656Z,0.00
2023-09-11T01:35:13.636Z,0.00
2023-09-11T01:36:13.474Z,0.00
2023-09-11T01:37:13.497Z,0.00
2023-09-11T01:38:18.624Z,0.00
2023-09-11T01:39:13.843Z,0.00
2023-09-11T01:40:13.699Z,0.00
2023-09-11T01:41:13.570Z,0.00
2023-09-11T01:42:13.366Z,0.00
2023-09-11T01:43:13.535Z,0.00
2023-09-11T01:44:13.572Z,0.00
2023-09-11T01:45:13.373Z,0.00
2023-09-11T01:46:13.222Z,0.00
2023-09-11T01:47:13.189Z,0.00
2023-09-11T01:48:13.471Z,0.00
2023-09-11T01:49:13.486Z,0.00
2023-09-11T01:50:13.498Z,0.00
2023-09-11T01:51:13.532Z,0.00
2023-09-11T01:52:13.499Z,0.00
2023-09-11T01:53:13.344Z,0.00
2023-09-11T01:54:13.642Z,0.00
2023-09-11T01:55:13.548Z,0.00
2023-09-11T01:56:13.836Z,0.00
2023-09-11T01:57:13.669Z,0.00
2023-09-11T01:58:13.366Z,0.00
2023-09-11T01:59:13.317Z,0.00
2023-09-11T02:00:13.448Z,0.00
2023-09-11T02:01:13.625Z,0.00
2023-09-11T02:02:13.411Z,0.00
2023-09-11T02:03:13.621Z,0.00
2023-09-11T02:04:13.663Z,0.00
2023-09-11T02:05:13.560Z,0.00
2023-09-11T02:06:14.023Z,0.00
2023-09-11T02:07:12.899Z,0.00
2023-09-11T02:08:12.731Z,0.00
2023-09-11T02:09:14.780Z,0.00
2023-09-11T02:10:13.822Z,0.00
2023-09-11T02:11:14.083Z,0.00
2023-09-11T02:12:13.108Z,0.00
2023-09-11T02:13:13.114Z,0.00
2023-09-11T02:14:12.999Z,0.00
2023-09-11T02:15:12.978Z,0.00
2023-09-11T02:16:13.037Z,0.00
2023-09-11T02:17:12.992Z,0.00
2023-09-11T02:18:13.050Z,0.00
2023-09-11T02:19:13.514Z,0.00
2023-09-11T02:20:13.354Z,0.00
2023-09-11T02:21:13.105Z,0.00
2023-09-11T02:22:13.299Z,0.00
2023-09-11T02:23:13.572Z,0.00
2023-09-11T02:24:13.465Z,0.00
2023-09-11T02:25:13.261Z,0.00
2023-09-11T02:26:13.105Z,0.00
2023-09-11T02:27:13.143Z,0.00
2023-09-11T02:28:13.032Z,0.00
2023-09-11T02:29:13.105Z,0.00
2023-09-11T02:30:12.992Z,0.00
2023-09-11T02:31:13.068Z,0.00
2023-09-11T02:32:12.881Z,0.00
2023-09-11T02:33:13.136Z,0.00
2023-09-11T02:34:13.159Z,0.00
2023-09-11T02:35:13.320Z,0.00
2023-09-11T02:36:13.300Z,0.00
2023-09-11T02:37:13.140Z,0.00
2023-09-11T02:38:13.231Z,0.00
2023-09-11T02:39:13.433Z,0.00
2023-09-11T02:40:13.408Z,0.00
2023-09-11T02:41:13.341Z,0.00
2023-09-11T02:42:13.179Z,0.00
2023-09-11T02:43:13.080Z,0.00
2023-09-11T02:44:13.201Z,0.00
2023-09-11T02:45:13.276Z,0.00
2023-09-11T02:46:13.251Z,0.00
2023-09-11T02:47:13.224Z,0.00
2023-09-11T02:48:13.126Z,0.00
2023-09-11T02:49:13.098Z,0.00
2023-09-11T02:50:13.119Z,0.00
2023-09-11T02:51:13.240Z,0.00
2023-09-11T02:52:13.389Z,0.00
2023-09-11T02:53:13.587Z,0.00
2023-09-11T02:54:13.659Z,0.00
2023-09-11T02:55:13.578Z,0.00
2023-09-11T02:56:13.673Z,0.00
2023-09-11T02:57:13.749Z,0.00
2023-09-11T02:58:13.713Z,0.00
2023-09-11T02:59:13.703Z,0.00
2023-09-11T03:00:13.824Z,0.00
2023-09-11T03:01:13.965Z,0.00
2023-09-11T03:02:13.151Z,0.00
2023-09-11T03:03:13.099Z,0.00
2023-09-11T03:04:13.294Z,0.00
2023-09-11T03:05:13.561Z,0.00
2023-09-11T03:06:13.977Z,0.00
2023-09-11T03:07:13.347Z,0.00
2023-09-11T03:08:13.527Z,0.00
2023-09-11T03:09:13.330Z,0.00
2023-09-11T03:10:13.657Z,0.00
2023-09-11T03:11:13.748Z,0.00
2023-09-11T03:12:13.745Z,0.00
2023-09-11T03:13:13.789Z,0.00
2023-09-11T03:14:13.611Z,0.00
2023-09-11T03:15:13.451Z,0.00
2023-09-11T03:16:13.713Z,0.00
2023-09-11T03:17:13.923Z,0.00
2023-09-11T03:18:12.874Z,0.00
2023-09-11T03:19:13.240Z,0.00
2023-09-11T03:20:13.389Z,0.00
2023-09-11T03:21:13.625Z,0.00
2023-09-11T03:22:13.506Z,0.00
2023-09-11T03:23:13.966Z,0.00
2023-09-11T03:24:12.834Z,0.00
2023-09-11T03:25:13.703Z,0.00
2023-09-11T03:26:19.082Z,0.00
2023-09-11T03:27:13.174Z,0.00
2023-09-11T03:28:13.350Z,0.00
2023-09-11T03:29:13.480Z,0.00
2023-09-11T03:30:13.335Z,0.00
2023-09-11T03:31:13.439Z,0.08
2023-09-11T03:32:13.268Z,0.00
2023-09-11T03:33:13.451Z,0.00
2023-09-11T03:34:13.449Z,0.00
2023-09-11T03:35:13.425Z,0.00
2023-09-11T03:36:13.262Z,0.00
2023-09-11T03:37:13.419Z,0.00
2023-09-11T03:38:13.453Z,0.00
2023-09-11T03:39:13.721Z,0.00
2023-09-11T03:40:13.722Z,0.00
2023-09-11T03:41:13.631Z,0.00
2023-09-11T03:42:13.634Z,0.00
2023-09-11T03:43:13.477Z,0.00
2023-09-11T03:44:13.598Z,0.00
2023-09-11T03:45:13.525Z,0.00
2023-09-11T03:46:13.805Z,0.00
2023-09-11T03:47:13.034Z,0.00
2023-09-11T03:48:12.948Z,0.00
2023-09-11T03:49:13.012Z,0.08
2023-09-11T03:50:12.949Z,0.00
2023-09-11T03:51:12.830Z,0.00
2023-09-11T03:52:14.005Z,0.00
2023-09-11T03:53:13.120Z,0.00
2023-09-11T03:54:13.092Z,0.00
2023-09-11T03:55:13.016Z,0.00
2023-09-11T03:56:13.052Z,0.00
2023-09-11T03:57:12.992Z,0.00
2023-09-11T03:58:13.050Z,0.00
2023-09-11T03:59:13.102Z,0.00
2023-09-11T04:00:13.063Z,0.00
2023-09-11T04:02:13.142Z,0.24
2023-09-11T04:03:14.588Z,0.00
2023-09-11T04:04:17.419Z,0.05
2023-09-11T04:05:13.709Z,0.00
2023-09-11T04:06:13.732Z,0.00
2023-09-11T04:07:13.644Z,0.00
2023-09-11T04:08:13.486Z,0.00
2023-09-11T04:09:13.571Z,0.00
2023-09-11T04:10:13.410Z,0.00
2023-09-11T04:11:13.446Z,0.00
2023-09-11T04:12:13.549Z,0.00
2023-09-11T04:13:13.561Z,0.00
2023-09-11T04:14:13.357Z,0.00
2023-09-11T04:15:13.242Z,0.00
2023-09-11T04:16:13.440Z,0.00
2023-09-11T04:17:13.317Z,0.00
2023-09-11T04:18:13.382Z,0.00
2023-09-11T04:19:13.252Z,0.00
2023-09-11T04:20:13.240Z,0.00
2023-09-11T04:21:13.257Z,0.00
2023-09-11T04:22:13.318Z,0.00
2023-09-11T04:23:13.458Z,0.00
2023-09-11T04:24:13.341Z,0.00
2023-09-11T04:25:13.347Z,0.00
2023-09-11T04:26:13.544Z,0.00
2023-09-11T04:27:13.645Z,0.00
2023-09-11T04:28:13.611Z,0.00
2023-09-11T04:29:13.832Z,0.00
2023-09-11T04:30:13.609Z,0.00
2023-09-11T04:31:13.535Z,0.00
2023-09-11T04:32:13.468Z,0.00
2023-09-11T04:33:14.012Z,0.00
2023-09-11T04:34:13.088Z,0.00
2023-09-11T04:35:13.093Z,0.00
2023-09-11T04:36:13.091Z,0.00
2023-09-11T04:37:13.113Z,0.00
2023-09-11T04:38:13.207Z,0.00
2023-09-11T04:39:13.544Z,0.00
2023-09-11T04:40:13.442Z,0.00
2023-09-11T04:41:13.168Z,0.00
2023-09-11T04:42:13.476Z,0.00
2023-09-11T04:43:13.619Z,0.00
2023-09-11T04:44:13.633Z,0.00
2023-09-11T04:45:13.737Z,0.00
2023-09-11T04:46:13.738Z,0.00
2023-09-11T04:47:13.818Z,0.00
2023-09-11T04:48:13.989Z,0.00
2023-09-11T04:49:12.968Z,0.00
2023-09-11T04:50:13.162Z,0.00
2023-09-11T04:51:13.237Z,0.00
2023-09-11T04:52:13.145Z,0.00
2023-09-11T04:53:13.218Z,0.00
2023-09-11T04:54:13.360Z,0.00
2023-09-11T04:55:13.324Z,0.00
2023-09-11T04:56:13.184Z,0.00
2023-09-11T04:57:13.007Z,0.00
2023-09-11T04:58:12.851Z,0.00
2023-09-11T04:59:13.766Z,0.00
2023-09-11T05:00:14.047Z,0.00
2023-09-11T05:01:13.141Z,0.00
2023-09-11T05:02:12.978Z,0.00
2023-09-11T05:03:13.084Z,0.00
2023-09-11T05:04:13.194Z,0.00
2023-09-11T05:05:15.000Z,0.00
2023-09-11T05:06:13.214Z,0.00
2023-09-11T05:07:13.288Z,0.00
2023-09-11T05:08:13.604Z,0.00
2023-09-11T05:09:13.659Z,0.00
2023-09-11T05:10:13.646Z,0.00
2023-09-11T05:11:42.535Z,0.00
2023-09-11T05:12:18.758Z,0.08
2023-09-11T05:13:13.662Z,0.00
2023-09-11T05:14:13.517Z,0.00
2023-09-11T05:15:13.327Z,0.00
2023-09-11T05:16:13.591Z,0.00
2023-09-11T05:17:13.559Z,0.00
2023-09-11T05:18:13.664Z,0.00
2023-09-11T05:19:13.676Z,0.00
2023-09-11T05:20:13.435Z,0.00
2023-09-11T05:21:13.572Z,0.00
2023-09-11T05:22:13.539Z,0.00
2023-09-11T05:23:13.568Z,0.00
2023-09-11T05:24:13.489Z,0.00
2023-09-11T05:25:13.593Z,0.00
2023-09-11T05:26:13.716Z,0.00
2023-09-11T05:27:13.880Z,0.00
2023-09-11T05:28:13.961Z,0.00
2023-09-11T05:29:12.899Z,0.00
2023-09-11T05:30:12.790Z,0.00
2023-09-11T05:31:13.699Z,0.00
2023-09-11T05:32:13.942Z,0.00
2023-09-11T05:33:12.999Z,0.00
2023-09-11T05:34:13.119Z,0.00
2023-09-11T05:35:13.139Z,0.00
2023-09-11T05:36:13.070Z,0.00
2023-09-11T05:37:12.976Z,0.00
2023-09-11T05:38:12.871Z,0.00
2023-09-11T05:39:13.869Z,0.00
2023-09-11T05:40:12.951Z,0.00
2023-09-11T05:41:12.991Z,0.00
2023-09-11T05:42:13.027Z,0.00
2023-09-11T05:43:12.942Z,0.00
2023-09-11T05:44:13.264Z,0.00
2023-09-11T05:45:13.307Z,0.00
2023-09-11T05:46:13.157Z,0.00
2023-09-11T05:47:13.061Z,0.00
2023-09-11T05:48:13.097Z,0.00
2023-09-11T05:49:13.448Z,0.00
2023-09-11T05:50:13.576Z,0.00
2023-09-11T05:51:13.535Z,0.00
2023-09-11T05:52:13.441Z,0.00
2023-09-11T05:53:13.226Z,0.00
2023-09-11T05:54:13.205Z,0.00
2023-09-11T05:55:13.370Z,0.00
2023-09-11T05:56:13.707Z,0.00
2023-09-11T05:57:13.675Z,0.16
2023-09-11T05:58:13.754Z,0.00
2023-09-11T05:59:13.801Z,0.00
2023-09-11T06:00:13.947Z,0.00
2023-09-11T06:01:13.604Z,0.16
2023-09-11T06:02:14.187Z,0.00
2023-09-11T06:03:13.268Z,0.00
2023-09-11T06:04:13.506Z,0.00
2023-09-11T06:05:14.738Z,0.00
2023-09-11T06:06:13.269Z,0.00
2023-09-11T06:07:13.329Z,0.00
2023-09-11T06:08:13.215Z,0.00
2023-09-11T06:09:13.097Z,0.00
2023-09-11T06:10:13.170Z,0.00
2023-09-11T06:11:14.422Z,0.00
2023-09-11T06:12:13.598Z,0.00
2023-09-11T06:13:13.648Z,0.00
2023-09-11T06:14:13.606Z,0.00
2023-09-11T06:15:13.586Z,0.00
2023-09-11T06:16:13.761Z,0.00
2023-09-11T06:17:13.965Z,0.00
2023-09-11T06:18:12.926Z,0.00
2023-09-11T06:19:12.868Z,0.00
2023-09-11T06:20:13.075Z,0.00
2023-09-11T06:21:13.118Z,0.00
2023-09-11T06:22:13.234Z,0.00
2023-09-11T06:23:13.241Z,0.00
2023-09-11T06:24:13.119Z,0.00
2023-09-11T06:25:13.482Z,0.00
2023-09-11T06:26:13.451Z,0.00
2023-09-11T06:27:13.634Z,0.00
2023-09-11T06:28:13.909Z,0.00
2023-09-11T06:29:12.704Z,0.00
2023-09-11T06:30:13.516Z,0.00
2023-09-11T06:31:13.638Z,0.00
2023-09-11T06:32:13.664Z,0.00
2023-09-11T06:33:14.038Z,0.00
2023-09-11T06:34:13.089Z,0.00
2023-09-11T06:35:17.917Z,0.00
2023-09-11T06:36:12.779Z,0.00
2023-09-11T06:37:13.652Z,0.06
2023-09-11T06:38:13.402Z,0.00
2023-09-11T06:39:13.572Z,0.00
2023-09-11T06:40:13.728Z,0.00
2023-09-11T06:41:13.715Z,0.00
2023-09-11T06:42:13.684Z,0.00
2023-09-11T06:43:13.542Z,0.00
2023-09-11T06:44:13.420Z,0.00
2023-09-11T06:45:13.338Z,0.00
2023-09-11T06:46:13.609Z,0.00
2023-09-11T06:47:13.607Z,0.00
2023-09-11T06:48:13.699Z,0.00
2023-09-11T06:49:13.747Z,0.00
2023-09-11T06:50:13.740Z,0.00
2023-09-11T06:51:13.726Z,0.00
2023-09-11T06:52:13.631Z,0.00
2023-09-11T06:53:13.468Z,0.20
2023-09-11T06:54:13.183Z,0.52
2023-09-11T06:55:13.136Z,0.28
2023-09-11T06:56:13.169Z,0.04
2023-09-11T06:57:13.102Z,0.16
2023-09-11T06:58:12.949Z,0.48
2023-09-11T06:59:18.257Z,1.24
2023-09-11T07:00:22.919Z,0.96
2023-09-11T07:02:13.703Z,2.64
2023-09-11T07:03:28.985Z,0.96
2023-09-11T07:04:18.312Z,0.84
2023-09-11T07:05:13.514Z,1.08
2023-09-11T07:06:13.506Z,1.28
2023-09-11T07:07:13.725Z,0.76
2023-09-11T07:08:13.632Z,1.20
2023-09-11T07:09:13.563Z,1.16
2023-09-11T07:10:15.243Z,3.12
2023-09-11T07:11:12.986Z,2.20
2023-09-11T07:12:12.942Z,1.84
2023-09-11T07:13:13.210Z,0.56
2023-09-11T07:14:13.202Z,0.20
2023-09-11T07:15:13.060Z,0.00
2023-09-11T07:16:13.104Z,3.80
2023-09-11T07:17:13.207Z,2.84
2023-09-11T07:18:13.205Z,1.92
2023-09-11T07:19:13.107Z,0.52
2023-09-11T07:20:12.959Z,3.36
2023-09-11T07:21:13.115Z,2.36
2023-09-11T07:22:13.072Z,0.92
2023-09-11T07:23:12.994Z,0.48
2023-09-11T07:24:13.573Z,0.88
2023-09-11T07:25:13.608Z,4.92
2023-09-11T07:26:13.692Z,2.80
2023-09-11T07:27:13.717Z,0.96
2023-09-11T07:28:13.684Z,2.72
2023-09-11T07:29:13.525Z,2.52
2023-09-11T07:30:13.466Z,3.36
2023-09-11T07:31:13.476Z,0.44
2023-09-11T07:32:13.456Z,2.64
2023-09-11T07:33:13.628Z,4.64
2023-09-11T07:34:13.809Z,3.36
2023-09-11T07:35:29.474Z,7.20
2023-09-11T07:36:13.696Z,2.40
2023-09-11T07:37:13.637Z,2.20
2023-09-11T07:38:13.696Z,3.00
2023-09-11T07:39:13.798Z,6.04
2023-09-11T07:40:13.865Z,5.44
2023-09-11T07:41:14.035Z,7.44
2023-09-11T07:42:12.964Z,6.44
2023-09-11T07:43:13.197Z,4.24
2023-09-11T07:44:13.300Z,7.20
2023-09-11T07:45:13.330Z,5.56
2023-09-11T07:46:13.342Z,5.44
2023-09-11T07:47:13.214Z,7.72
2023-09-11T07:48:13.384Z,3.16
2023-09-11T07:49:13.440Z,5.84
2023-09-11T07:50:13.393Z,2.28
2023-09-11T07:51:13.600Z,3.52
2023-09-11T07:52:13.490Z,2.60
2023-09-11T07:53:13.428Z,6.12
2023-09-11T07:54:13.428Z,3.72
2023-09-11T07:55:13.380Z,2.00
2023-09-11T07:56:13.467Z,3.24
2023-09-11T07:57:13.548Z,4.44
2023-09-11T07:58:13.644Z,5.52
2023-09-11T07:59:13.553Z,10.96
2023-09-11T08:00:13.497Z,7.88
2023-09-11T08:01:13.679Z,20.96
2023-09-11T08:02:13.600Z,5.20
2023-09-11T08:03:13.643Z,6.52
2023-09-11T08:04:13.788Z,9.12
2023-09-11T08:05:13.008Z,7.36
2023-09-11T08:06:14.427Z,8.40
2023-09-11T08:07:13.606Z,4.92
2023-09-11T08:08:13.609Z,9.80
2023-09-11T08:09:13.649Z,6.28
2023-09-11T08:10:13.483Z,3.80
2023-09-11T08:11:13.616Z,7.72
2023-09-11T08:12:13.613Z,0.96
2023-09-11T08:13:13.753Z,2.92
2023-09-11T08:14:13.732Z,6.04
2023-09-11T08:15:13.765Z,6.08
2023-09-11T08:16:13.912Z,15.56
2023-09-11T08:17:13.183Z,9.12
2023-09-11T08:18:13.329Z,5.36
2023-09-11T08:19:13.532Z,14.96
2023-09-11T08:20:13.362Z,6.76
2023-09-11T08:21:13.370Z,2.40
2023-09-11T08:22:13.131Z,6.48
2023-09-11T08:23:13.024Z,0.52
2023-09-11T08:24:12.966Z,2.72
2023-09-11T08:25:12.940Z,0.00
2023-09-11T08:26:12.953Z,5.40
2023-09-11T08:27:12.921Z,1.16
2023-09-11T08:28:12.969Z,4.96
2023-09-11T08:29:13.152Z,2.00
2023-09-11T08:30:13.162Z,1.64
2023-09-11T08:31:13.255Z,3.32
2023-09-11T08:32:13.129Z,1.68
2023-09-11T08:33:12.942Z,0.16
2023-09-11T08:34:12.996Z,0.00
2023-09-11T08:35:13.026Z,5.44
2023-09-11T08:36:13.195Z,7.40
2023-09-11T08:37:14.491Z,4.80
2023-09-11T08:38:13.616Z,1.52
2023-09-11T08:39:15.098Z,1.16
2023-09-11T08:40:13.074Z,1.40
2023-09-11T08:41:13.168Z,1.85
2023-09-11T08:42:13.206Z,1.52
2023-09-11T08:43:13.349Z,0.64
2023-09-11T08:44:13.161Z,1.52
2023-09-11T08:45:13.176Z,3.56
2023-09-11T08:46:13.419Z,3.72
2023-09-11T08:47:14.709Z,5.24
2023-09-11T08:48:12.887Z,2.60
2023-09-11T08:49:12.783Z,6.16
2023-09-11T08:50:13.811Z,4.20
2023-09-11T08:51:13.847Z,6.12
2023-09-11T08:52:13.005Z,2.40
2023-09-11T08:53:13.023Z,0.64
2023-09-11T08:54:13.055Z,2.64
2023-09-11T08:55:12.794Z,7.76
2023-09-11T08:56:13.821Z,9.16
2023-09-11T08:57:13.730Z,8.32
2023-09-11T08:58:13.805Z,9.92
2023-09-11T08:59:13.340Z,16.40
2023-09-11T09:00:13.372Z,10.28
2023-09-11T09:01:13.430Z,5.16
2023-09-11T09:02:13.531Z,1.28
2023-09-11T09:03:13.559Z,3.72
2023-09-11T09:04:13.725Z,4.28
2023-09-11T09:05:13.768Z,13.48
2023-09-11T09:06:13.888Z,9.44
2023-09-11T09:07:12.893Z,6.48
2023-09-11T09:08:12.850Z,3.60
2023-09-11T09:09:13.798Z,7.32
2023-09-11T09:10:13.681Z,4.28
2023-09-11T09:11:13.481Z,7.76
2023-09-11T09:12:13.601Z,9.20
2023-09-11T09:13:13.911Z,10.72
2023-09-11T09:14:13.035Z,9.68
2023-09-11T09:15:13.026Z,9.08
2023-09-11T09:16:12.817Z,6.40
2023-09-11T09:17:13.849Z,5.04
2023-09-11T09:18:13.900Z,11.24
2023-09-11T09:19:13.049Z,3.80
2023-09-11T09:20:13.127Z,0.64
2023-09-11T09:21:13.073Z,6.12
2023-09-11T09:22:13.278Z,9.64
2023-09-11T09:23:13.360Z,4.60
2023-09-11T09:24:13.459Z,13.44
2023-09-11T09:25:13.524Z,5.92
2023-09-11T09:26:13.469Z,3.24
2023-09-11T09:27:13.503Z,1.32
2023-09-11T09:28:13.482Z,6.00
2023-09-11T09:29:13.447Z,4.04
2023-09-11T09:30:48.396Z,2.72
2023-09-11T09:31:00.910Z,1.92
2023-09-11T09:31:12.923Z,2.52
2023-09-11T09:32:12.959Z,8.28
2023-09-11T09:33:13.077Z,7.32
2023-09-11T09:34:13.027Z,3.16
2023-09-11T09:35:12.937Z,3.20
2023-09-11T09:36:12.894Z,0.28
2023-09-11T09:37:12.890Z,0.20
2023-09-11T09:38:12.804Z,4.44
2023-09-11T09:39:13.709Z,2.60
2023-09-11T09:40:13.927Z,5.32
2023-09-11T09:41:12.975Z,5.64
2023-09-11T09:42:12.997Z,8.96
2023-09-11T09:43:12.973Z,11.20
2023-09-11T09:44:12.866Z,20.60
2023-09-11T09:45:13.858Z,15.40
2023-09-11T09:46:12.912Z,2.76
2023-09-11T09:47:13.067Z,6.88
2023-09-11T09:48:13.109Z,14.60
2023-09-11T09:49:13.049Z,19.80
2023-09-11T09:50:13.021Z,12.44
2023-09-11T09:51:12.957Z,6.28
2023-09-11T09:52:13.114Z,8.96
2023-09-11T09:53:13.146Z,10.20
2023-09-11T09:54:13.336Z,5.12
2023-09-11T09:55:18.301Z,6.32
2023-09-11T09:56:13.348Z,1.00
2023-09-11T09:57:13.237Z,4.84
2023-09-11T09:58:13.229Z,8.52
2023-09-11T09:59:13.494Z,1.60
2023-09-11T10:00:13.556Z,1.28
2023-09-11T10:01:13.837Z,2.88
2023-09-11T10:02:13.789Z,5.20
2023-09-11T10:03:14.256Z,0.52
2023-09-11T10:04:13.436Z,5.40
2023-09-11T10:05:13.628Z,5.64
2023-09-11T10:06:13.559Z,6.04
2023-09-11T10:07:13.413Z,3.20
2023-09-11T10:08:13.104Z,0.00
2023-09-11T10:09:13.163Z,1.36
2023-09-11T10:10:14.167Z,2.36
2023-09-11T10:11:13.311Z,0.12
2023-09-11T10:12:13.235Z,1.80
2023-09-11T10:13:13.162Z,3.20
2023-09-11T10:14:13.214Z,2.92
2023-09-11T10:15:13.301Z,5.00
2023-09-11T10:16:13.341Z,3.68
2023-09-11T10:17:13.136Z,5.36
2023-09-11T10:18:13.288Z,1.28
2023-09-11T10:19:13.221Z,5.60
2023-09-11T10:20:13.165Z,5.56
2023-09-11T10:21:13.149Z,4.72
2023-09-11T10:22:13.286Z,8.84
2023-09-11T10:23:13.190Z,7.80
2023-09-11T10:24:13.015Z,4.36
2023-09-11T10:25:12.999Z,0.84
2023-09-11T10:26:12.927Z,2.68
2023-09-11T10:27:12.966Z,4.64
2023-09-11T10:28:13.101Z,3.44
2023-09-11T10:29:12.952Z,2.80
2023-09-11T10:30:12.766Z,2.16
2023-09-11T10:31:14.120Z,4.00
2023-09-11T10:32:13.087Z,3.16
2023-09-11T10:33:13.174Z,2.40
2023-09-11T10:34:13.108Z,2.12
2023-09-11T10:35:13.062Z,2.88
2023-09-11T10:36:12.988Z,6.56
2023-09-11T10:37:13.241Z,3.40
2023-09-11T10:38:13.235Z,3.04
2023-09-11T10:39:13.375Z,1.84
2023-09-11T10:40:13.264Z,3.24
2023-09-11T10:41:13.118Z,2.76
2023-09-11T10:42:13.280Z,4.36
2023-09-11T10:43:13.381Z,2.20
2023-09-11T10:44:13.275Z,1.68
2023-09-11T10:45:13.248Z,2.24
2023-09-11T10:46:14.515Z,5.40
2023-09-11T10:47:13.015Z,7.00
2023-09-11T10:48:13.155Z,4.00
2023-09-11T10:49:13.152Z,2.76
2023-09-11T10:50:13.224Z,2.68
2023-09-11T10:51:13.159Z,5.32
2023-09-11T10:52:12.956Z,4.08
2023-09-11T10:53:12.883Z,4.24
2023-09-11T10:54:13.076Z,1.84
2023-09-11T10:55:13.055Z,3.52
2023-09-11T10:56:13.062Z,7.56
2023-09-11T10:57:13.174Z,10.08
2023-09-11T10:58:13.281Z,6.04
2023-09-11T10:59:13.318Z,3.76
2023-09-11T11:00:13.603Z,6.08
2023-09-11T11:01:13.760Z,4.84
2023-09-11T11:02:13.758Z,2.40
2023-09-11T11:03:13.838Z,0.00
2023-09-11T11:04:12.942Z,1.72
2023-09-11T11:05:13.214Z,3.04
2023-09-11T11:06:13.214Z,1.76
2023-09-11T11:07:13.086Z,1.20
2023-09-11T11:08:13.034Z,5.48
2023-09-11T11:09:22.764Z,3.08
2023-09-11T11:10:13.176Z,1.24
2023-09-11T11:11:13.450Z,1.40
2023-09-11T11:12:13.537Z,3.60
2023-09-11T11:13:13.453Z,3.80
2023-09-11T11:14:13.788Z,10.32
2023-09-11T11:15:14.276Z,9.28
2023-09-11T11:16:13.392Z,3.80
2023-09-11T11:17:13.448Z,14.68
2023-09-11T11:18:13.487Z,11.40
2023-09-11T11:19:13.463Z,11.44
2023-09-11T11:20:13.364Z,6.36
2023-09-11T11:21:13.494Z,16.92
2023-09-11T11:22:13.685Z,8.40
2023-09-11T11:23:13.551Z,20.12
2023-09-11T11:24:13.618Z,18.32
2023-09-11T11:25:13.753Z,7.76
2023-09-11T11:26:13.605Z,7.04
2023-09-11T11:27:13.726Z,8.28
2023-09-11T11:28:13.892Z,7.44
2023-09-11T11:29:13.086Z,11.88
2023-09-11T11:30:13.014Z,14.60
2023-09-11T11:31:12.934Z,10.92
2023-09-11T11:32:12.696Z,13.36
2023-09-11T11:33:13.919Z,10.44
2023-09-11T11:34:13.053Z,8.40
2023-09-11T11:35:13.831Z,7.96
2023-09-11T11:36:13.898Z,11.00
2023-09-11T11:37:12.916Z,10.40
2023-09-11T11:38:12.809Z,8.56
2023-09-11T11:39:13.694Z,9.04
2023-09-11T11:40:13.674Z,6.16
2023-09-11T11:41:13.514Z,4.36
2023-09-11T11:42:13.510Z,9.04
2023-09-11T11:43:13.414Z,14.20
2023-09-11T11:44:13.412Z,6.00
2023-09-11T11:45:13.563Z,2.32
2023-09-11T11:46:13.521Z,3.28
2023-09-11T11:47:13.561Z,1.56
2023-09-11T11:48:13.602Z,3.36
2023-09-11T11:49:14.254Z,7.32
2023-09-11T11:50:13.160Z,8.64
2023-09-11T11:51:13.139Z,5.84
2023-09-11T11:52:13.054Z,6.80
2023-09-11T11:53:12.814Z,3.48
2023-09-11T11:54:14.026Z,5.64
2023-09-11T11:55:13.138Z,8.00
2023-09-11T11:56:13.110Z,6.60
2023-09-11T11:57:13.307Z,8.20
2023-09-11T11:58:13.239Z,11.04
2023-09-11T11:59:18.105Z,12.00
2023-09-11T12:00:13.207Z,5.76
2023-09-11T12:01:18.413Z,2.08
2023-09-11T12:02:13.564Z,12.96
2023-09-11T12:03:13.520Z,8.88
2023-09-11T12:04:13.987Z,8.64
2023-09-11T12:05:13.194Z,6.84
2023-09-11T12:06:13.153Z,4.64
2023-09-11T12:07:13.509Z,6.28
2023-09-11T12:08:13.321Z,10.08
2023-09-11T12:09:14.666Z,8.02
2023-09-11T12:10:13.658Z,3.39
2023-09-11T12:11:13.673Z,6.72
2023-09-11T12:12:13.528Z,7.56
2023-09-11T12:13:13.579Z,9.20
2023-09-11T12:14:13.596Z,3.32
2023-09-11T12:15:13.944Z,6.56
2023-09-11T12:16:13.082Z,1.28
2023-09-11T12:17:14.428Z,3.79
2023-09-11T12:18:13.559Z,6.17
2023-09-11T12:19:13.672Z,3.36
2023-09-11T12:20:13.727Z,4.48
2023-09-11T12:21:14.074Z,2.16
2023-09-11T12:22:13.274Z,6.64
2023-09-11T12:23:13.378Z,11.48
2023-09-11T12:24:13.520Z,8.76
2023-09-11T12:25:13.661Z,8.56
2023-09-11T12:26:19.956Z,12.48
2023-09-11T12:27:13.139Z,10.08
2023-09-11T12:28:13.209Z,8.72
2023-09-11T12:29:13.493Z,10.72
2023-09-11T12:30:13.599Z,4.96
2023-09-11T12:31:13.741Z,2.84
2023-09-11T12:32:13.758Z,0.72
2023-09-11T12:33:13.924Z,7.28
2023-09-11T12:34:12.900Z,7.92
2023-09-11T12:35:12.822Z,5.76
2023-09-11T12:36:13.890Z,8.20
2023-09-11T12:37:12.787Z,6.44
2023-09-11T12:38:13.809Z,7.64
2023-09-11T12:39:13.926Z,5.24
2023-09-11T12:40:13.046Z,6.00
2023-09-11T12:41:12.964Z,6.88
2023-09-11T12:42:12.895Z,10.16
2023-09-11T12:43:13.165Z,5.68
2023-09-11T12:44:13.281Z,13.64
2023-09-11T12:45:13.428Z,7.84
2023-09-11T12:46:13.695Z,6.16
2023-09-11T12:47:13.828Z,12.24
2023-09-11T12:48:16.332Z,7.48
2023-09-11T12:49:13.322Z,2.64
2023-09-11T12:50:13.291Z,7.40
2023-09-11T12:51:13.293Z,5.56
2023-09-11T12:52:13.268Z,6.32
2023-09-11T12:53:13.101Z,8.72
2023-09-11T12:54:13.142Z,11.36
2023-09-11T12:55:13.084Z,14.68
2023-09-11T12:56:13.215Z,9.16
2023-09-11T12:57:13.161Z,8.64
2023-09-11T12:58:13.224Z,13.96
2023-09-11T12:59:13.061Z,6.48
2023-09-11T13:00:13.019Z,4.12
2023-09-11T13:01:13.248Z,9.92
2023-09-11T13:02:13.363Z,10.28
2023-09-11T13:03:13.213Z,9.40
2023-09-11T13:04:13.227Z,16.16
2023-09-11T13:05:13.298Z,8.56
2023-09-11T13:06:13.317Z,14.24
2023-09-11T13:07:13.292Z,11.64
2023-09-11T13:08:13.073Z,10.08
2023-09-11T13:09:18.098Z,7.24
2023-09-11T13:10:13.290Z,6.80
2023-09-11T13:11:13.499Z,6.40
2023-09-11T13:12:13.727Z,5.64
2023-09-11T13:13:25.067Z,10.36
2023-09-11T13:14:15.544Z,9.72
2023-09-11T13:15:12.784Z,8.16
2023-09-11T13:16:13.784Z,14.36
2023-09-11T13:17:13.793Z,11.76